Pagrindinis puslapis
METAR-TAF:

METAR-TAF

Oro uostai :

Kramfors, Švedija

platuma: 63-03N, ilguma: 017-46E, Aukštis: 10 m

Dabartinis oras

Ataskaita buvo paskelbta 40 minutes, ne 01:50 UTC
Ramus vėjas
Temperatūra -18°C
Drėgmė 84%
Slėgis 996 hPa
Matomumas 10 km arba daugiau
sniegas

METAR: ESNK 010150Z AUTO 00000KT 9999 -SN NCD M18/M20 Q0996

Laikas: 03:30 (02:30 UTC)

Prognozė

Ataskaita buvo paskelbta 12 valandos ir 0 minutes, ne 14:30 UTC
Prognozė galioja nuo 30 metu 15 UTC su 30 metu 18 UTC
Vėjas 7 kt iš Šiaurės/Šiaurės Vakarų
Matomumas 10 km arba daugiau
Su prošvaistėmis ne aukštis 1500 ft
Laikinai
nuo 30 metu 15 UTC su 30 metu 18 UTC
Matomumas: 4000 m
Su prošvaistėmis ne aukštis 800 ft
sniegas

TAF: ESNK 301430Z 3015/3018 34007KT 9999 BKN015 TEMPO 3015/3018 4000 -SN BKN008

Orai ataskaitas ir orų prognozės (METAR, TAF).

turimą stotys yra geltonos ir raudonos taškus žemėlapyje.

Perkelti pele per norėdami pamatyti stoties vardą.

Tada spustelėkite, norėdami matyti oro stebėjimo ir prognozės.

Norėdami pakeisti žemėlapį: spustelėkite ant žalios mygtukų su juodo kryžiaus žemyn,; žalią mygtuką su brūkšneliu, jei norite nutolinti; arba žalių rodyklių gretimoms žemėlapius.


METAR-TAF: